createdAt,value
2019-03-12T00:01:44.542Z,12.17
2019-03-12T00:04:15.429Z,12.04
2019-03-12T00:06:45.946Z,11.91
2019-03-12T00:09:16.403Z,11.72
2019-03-12T00:11:47.132Z,11.64
2019-03-12T00:14:17.640Z,11.59
2019-03-12T00:16:48.415Z,11.59
2019-03-12T00:19:18.996Z,11.59
2019-03-12T00:21:49.564Z,11.58
2019-03-12T00:24:20.013Z,11.59
2019-03-12T00:26:50.736Z,11.56
2019-03-12T00:29:21.297Z,11.54
2019-03-12T00:31:51.721Z,11.43
2019-03-12T00:34:22.440Z,11.30
2019-03-12T00:36:52.894Z,11.19
2019-03-12T00:39:23.526Z,11.09
2019-03-12T00:41:53.939Z,10.94
2019-03-12T00:44:24.388Z,10.87
2019-03-12T00:46:54.900Z,10.84
2019-03-12T00:49:25.527Z,10.70
2019-03-12T00:51:55.966Z,10.58
2019-03-12T00:54:26.466Z,10.54
2019-03-12T00:56:57.041Z,10.53
2019-03-12T00:59:27.542Z,10.41
2019-03-12T01:01:58.246Z,10.52
2019-03-12T01:04:28.899Z,10.54
2019-03-12T01:06:59.643Z,10.55
2019-03-12T01:09:30.322Z,10.36
2019-03-12T01:12:00.812Z,10.26
2019-03-12T01:14:31.419Z,10.23
2019-03-12T01:17:01.968Z,10.13
2019-03-12T01:19:32.621Z,10.09
2019-03-12T01:22:03.171Z,10.08
2019-03-12T01:24:33.881Z,10.04
2019-03-12T01:27:04.536Z,9.99
2019-03-12T01:29:34.833Z,9.97
2019-03-12T01:32:05.379Z,9.96
2019-03-12T01:34:35.927Z,9.92
2019-03-12T01:37:06.746Z,9.75
2019-03-12T01:39:38.764Z,9.64
2019-03-12T01:42:09.358Z,9.65
2019-03-12T01:44:39.975Z,9.72
2019-03-12T01:47:10.507Z,9.72
2019-03-12T01:49:41.244Z,9.69
2019-03-12T01:52:12.058Z,9.69
2019-03-12T01:54:43.110Z,9.67
2019-03-12T01:57:13.879Z,9.63
2019-03-12T01:59:44.318Z,9.55
2019-03-12T02:02:15.213Z,9.50
2019-03-12T02:04:45.671Z,9.42
2019-03-12T02:07:16.113Z,9.33
2019-03-12T02:09:46.602Z,9.34
2019-03-12T02:12:17.149Z,9.34
2019-03-12T02:14:47.163Z,9.38
2019-03-12T02:17:18.055Z,9.47
2019-03-12T02:19:48.600Z,9.56
2019-03-12T02:22:19.424Z,9.32
2019-03-12T02:24:52.912Z,9.26
2019-03-12T02:27:21.231Z,9.31
2019-03-12T02:29:51.645Z,9.37
2019-03-12T02:32:21.890Z,9.23
2019-03-12T02:34:52.205Z,9.19
2019-03-12T02:37:25.286Z,9.27
2019-03-12T02:39:55.310Z,9.19
2019-03-12T02:42:26.993Z,9.21
2019-03-12T02:44:58.635Z,9.14
2019-03-12T02:47:28.875Z,9.04
2019-03-12T02:49:59.202Z,9.07
2019-03-12T02:52:29.450Z,8.85
2019-03-12T02:54:59.650Z,8.83
2019-03-12T02:57:30.230Z,8.88
2019-03-12T03:00:00.637Z,8.81
2019-03-12T03:02:31.060Z,8.66
2019-03-12T03:05:01.674Z,8.69
2019-03-12T03:07:54.467Z,8.72
2019-03-12T03:10:24.957Z,8.77
2019-03-12T03:12:55.516Z,8.71
2019-03-12T03:15:28.781Z,8.59
2019-03-12T03:17:59.582Z,8.57
2019-03-12T03:20:30.052Z,8.54
2019-03-12T03:23:00.604Z,8.61
2019-03-12T03:25:31.141Z,8.61
2019-03-12T03:28:01.691Z,8.55
2019-03-12T03:30:32.465Z,8.48
2019-03-12T03:33:03.187Z,8.49
2019-03-12T03:35:33.829Z,8.52
2019-03-12T03:38:04.260Z,8.48
2019-03-12T03:40:36.383Z,8.45
2019-03-12T03:43:06.923Z,8.47
2019-03-12T03:45:37.657Z,8.48
2019-03-12T03:48:08.177Z,8.36
2019-03-12T03:50:38.894Z,8.33
2019-03-12T03:53:09.901Z,8.32
2019-03-12T03:55:40.856Z,8.20
2019-03-12T03:58:11.590Z,8.20
2019-03-12T04:00:42.247Z,8.14
2019-03-12T04:03:14.599Z,8.19
2019-03-12T04:05:45.743Z,8.14
2019-03-12T04:08:16.514Z,8.16
2019-03-12T04:10:47.113Z,8.17
2019-03-12T04:13:17.913Z,8.22
2019-03-12T04:15:50.388Z,8.25
2019-03-12T04:18:21.539Z,8.22
2019-03-12T04:20:52.383Z,8.11
2019-03-12T04:23:23.385Z,8.04
2019-03-12T04:25:53.995Z,8.12
2019-03-12T04:28:27.552Z,8.07
2019-03-12T04:30:58.298Z,8.10
2019-03-12T04:34:18.308Z,8.10
2019-03-12T04:36:50.019Z,8.09
2019-03-12T04:39:20.387Z,8.03
2019-03-12T04:41:51.025Z,7.92
2019-03-12T04:44:21.678Z,7.96
2019-03-12T04:46:52.449Z,8.01
2019-03-12T04:49:23.138Z,7.90
2019-03-12T04:51:53.609Z,7.86
2019-03-12T04:54:24.099Z,7.83
2019-03-12T04:56:55.316Z,7.88
2019-03-12T04:59:26.143Z,7.91
2019-03-12T05:01:57.054Z,7.87
2019-03-12T05:04:27.694Z,7.79
2019-03-12T05:06:59.043Z,7.79
2019-03-12T05:09:30.163Z,7.75
2019-03-12T05:12:00.785Z,7.77
2019-03-12T05:14:38.152Z,7.87
2019-03-12T05:17:19.631Z,7.86
2019-03-12T05:19:50.112Z,7.84
2019-03-12T05:22:25.144Z,7.90
2019-03-12T05:24:55.898Z,7.87
2019-03-12T05:27:26.530Z,7.84
2019-03-12T05:29:56.935Z,7.83
2019-03-12T05:32:27.854Z,7.89
2019-03-12T05:34:58.710Z,7.94
2019-03-12T05:37:29.569Z,7.94
2019-03-12T05:40:00.380Z,7.95
2019-03-12T05:42:31.008Z,7.95
2019-03-12T05:45:01.935Z,7.94
2019-03-12T05:47:32.494Z,8.00
2019-03-12T05:50:03.281Z,7.96
2019-03-12T05:52:34.257Z,7.82
2019-03-12T05:55:07.607Z,7.85
2019-03-12T05:57:38.852Z,7.77
2019-03-12T06:00:10.577Z,7.80
2019-03-12T06:02:41.091Z,7.73
2019-03-12T06:05:11.807Z,7.65
2019-03-12T06:07:42.762Z,7.66
2019-03-12T06:10:16.222Z,7.55
2019-03-12T06:12:46.913Z,7.59
2019-03-12T06:15:17.353Z,7.54
2019-03-12T06:17:47.791Z,7.55
2019-03-12T06:20:18.582Z,7.63
2019-03-12T06:22:48.990Z,7.60
2019-03-12T06:25:20.481Z,7.52
2019-03-12T06:27:51.229Z,7.50
2019-03-12T06:30:22.193Z,7.54
2019-03-12T06:33:01.540Z,7.62
2019-03-12T06:35:45.797Z,7.72
2019-03-12T06:38:36.886Z,7.70
2019-03-12T06:41:17.757Z,7.66
2019-03-12T06:44:03.167Z,7.74
2019-03-12T06:46:55.789Z,7.69
2019-03-12T06:49:39.057Z,7.74
2019-03-12T06:52:34.742Z,7.77
2019-03-12T06:55:29.775Z,7.78
2019-03-12T06:58:36.114Z,7.80
2019-03-12T07:01:25.688Z,7.86
2019-03-12T07:04:14.467Z,7.94
2019-03-12T07:07:06.950Z,7.98
2019-03-12T07:09:41.129Z,8.01
2019-03-12T07:12:43.816Z,8.03
2019-03-12T07:15:36.315Z,8.10
2019-03-12T07:18:24.210Z,8.25
2019-03-12T07:21:37.376Z,8.36
2019-03-12T07:24:24.334Z,8.42
2019-03-12T07:27:19.608Z,8.34
2019-03-12T07:29:56.486Z,8.43
2019-03-12T07:32:48.118Z,8.37
2019-03-12T07:35:36.843Z,8.37
2019-03-12T07:38:31.203Z,8.59
2019-03-12T07:41:25.003Z,8.75
2019-03-12T07:43:57.863Z,8.82
2019-03-12T07:46:47.825Z,8.89
2019-03-12T07:49:40.110Z,8.97
2019-03-12T07:52:25.636Z,9.11
2019-03-12T07:55:29.917Z,9.29
2019-03-12T07:58:18.103Z,9.48
2019-03-12T08:01:10.329Z,9.75
2019-03-12T08:03:52.579Z,9.92
2019-03-12T08:06:50.984Z,9.85
2019-03-12T08:09:43.369Z,9.75
2019-03-12T08:12:23.141Z,9.77
2019-03-12T08:15:23.034Z,9.80
2019-03-12T08:18:16.814Z,9.84
2019-03-12T08:21:06.183Z,10.02
2019-03-12T08:23:53.889Z,9.96
2019-03-12T08:26:32.407Z,9.93
2019-03-12T08:29:17.616Z,9.88
2019-03-12T08:32:13.519Z,9.97
2019-03-12T08:35:11.454Z,10.11
2019-03-12T08:37:48.544Z,10.11
2019-03-12T08:40:51.729Z,10.11
2019-03-12T08:43:33.620Z,10.04
2019-03-12T08:46:24.595Z,9.98
2019-03-12T08:49:03.613Z,9.99
2019-03-12T08:51:51.356Z,9.91
2019-03-12T08:54:54.409Z,9.92
2019-03-12T08:57:42.014Z,9.98
2019-03-12T09:00:27.707Z,9.98
2019-03-12T09:03:16.475Z,9.90
2019-03-12T09:05:57.239Z,9.93
2019-03-12T09:08:42.915Z,10.04
2019-03-12T09:11:25.522Z,10.08
2019-03-12T09:14:09.801Z,10.09
2019-03-12T09:17:00.439Z,10.06
2019-03-12T09:20:01.474Z,9.98
2019-03-12T09:22:51.338Z,9.87
2019-03-12T09:25:42.503Z,9.85
2019-03-12T09:28:31.666Z,9.79
2019-03-12T09:31:34.963Z,9.81
2019-03-12T09:34:27.292Z,9.75
2019-03-12T09:37:18.035Z,9.81
2019-03-12T09:39:59.645Z,9.66
2019-03-12T09:42:48.537Z,9.60
2019-03-12T09:45:36.584Z,9.75
2019-03-12T09:48:38.010Z,9.75
2019-03-12T09:51:24.720Z,9.78
2019-03-12T09:54:05.295Z,9.87
2019-03-12T09:56:55.333Z,10.00
2019-03-12T09:59:56.437Z,10.16
2019-03-12T10:02:44.467Z,10.20
2019-03-12T10:05:29.939Z,10.36
2019-03-12T10:08:27.799Z,10.45
2019-03-12T10:11:02.837Z,10.56
2019-03-12T10:13:47.393Z,10.41
2019-03-12T10:16:35.883Z,10.36
2019-03-12T10:19:24.554Z,10.18
2019-03-12T10:22:23.269Z,10.13
2019-03-12T10:25:18.410Z,10.07
2019-03-12T10:28:01.834Z,10.26
2019-03-12T10:30:50.271Z,10.25
2019-03-12T10:33:38.326Z,10.30
2019-03-12T10:36:27.476Z,10.40
2019-03-12T10:39:54.992Z,10.41
2019-03-12T10:42:35.360Z,10.52
2019-03-12T10:45:13.665Z,10.40
2019-03-12T10:47:44.647Z,10.38
2019-03-12T10:50:24.125Z,10.37
2019-03-12T10:52:55.341Z,10.32
2019-03-12T10:55:26.073Z,10.32
2019-03-12T10:57:56.322Z,10.39
2019-03-12T11:00:26.906Z,10.42
2019-03-12T11:02:57.536Z,10.42
2019-03-12T11:05:28.224Z,10.38
2019-03-12T11:07:58.823Z,10.16
2019-03-12T11:10:31.049Z,10.03
2019-03-12T11:13:01.633Z,9.95
2019-03-12T11:15:34.143Z,9.86
2019-03-12T11:18:04.927Z,9.93
2019-03-12T11:20:38.693Z,9.92
2019-03-12T11:23:09.231Z,9.97
2019-03-12T11:25:41.061Z,9.93
2019-03-12T11:28:12.687Z,9.86
2019-03-12T11:30:43.244Z,9.93
2019-03-12T11:33:13.448Z,10.06
2019-03-12T11:35:44.215Z,10.14
2019-03-12T11:38:14.771Z,10.18
2019-03-12T11:40:45.490Z,10.37
2019-03-12T11:43:16.898Z,10.44
2019-03-12T11:45:47.459Z,10.49
2019-03-12T11:48:18.468Z,10.61
2019-03-12T11:50:48.947Z,10.40
2019-03-12T11:53:19.586Z,10.20
2019-03-12T11:55:52.759Z,10.04
2019-03-12T11:58:23.505Z,9.85
2019-03-12T12:00:59.359Z,9.63
2019-03-12T12:03:30.065Z,9.42
2019-03-12T12:06:00.733Z,9.30
2019-03-12T12:08:31.693Z,9.19
2019-03-12T12:11:02.650Z,9.29
2019-03-12T12:13:33.138Z,9.26
2019-03-12T12:16:03.049Z,9.29
2019-03-12T12:18:32.977Z,9.44
2019-03-12T12:21:03.503Z,9.46
2019-03-12T12:23:34.165Z,9.59
2019-03-12T12:26:04.882Z,9.72
2019-03-12T12:28:35.256Z,9.57
2019-03-12T12:31:05.906Z,9.63
2019-03-12T12:33:36.386Z,9.78
2019-03-12T12:36:07.061Z,9.92
2019-03-12T12:38:37.927Z,9.97
2019-03-12T12:41:13.880Z,10.01
2019-03-12T12:43:48.527Z,9.94
2019-03-12T12:46:20.862Z,10.00
2019-03-12T12:48:53.272Z,10.11
2019-03-12T12:51:23.190Z,10.07
2019-03-12T12:53:53.777Z,10.08
2019-03-12T12:56:24.150Z,9.98
2019-03-12T12:58:54.691Z,9.93
2019-03-12T13:01:24.889Z,9.75
2019-03-12T13:03:55.458Z,9.64
2019-03-12T13:06:26.113Z,9.57
2019-03-12T13:08:56.840Z,9.39
2019-03-12T13:11:27.199Z,9.13
2019-03-12T13:13:57.624Z,8.96
2019-03-12T13:16:28.104Z,9.02
2019-03-12T13:18:58.139Z,8.96
2019-03-12T13:21:29.056Z,8.91
2019-03-12T13:23:59.551Z,8.78
2019-03-12T13:26:29.956Z,8.60
2019-03-12T13:29:00.409Z,8.60
2019-03-12T13:31:31.163Z,8.35
2019-03-12T13:34:01.619Z,8.05
2019-03-12T13:36:34.902Z,7.86
2019-03-12T13:39:06.656Z,7.76
2019-03-12T13:41:37.308Z,7.73
2019-03-12T13:44:07.937Z,7.87
2019-03-12T13:46:38.438Z,7.86
2019-03-12T13:49:09.081Z,7.77
2019-03-12T13:51:39.794Z,7.75
2019-03-12T13:54:10.713Z,7.76
2019-03-12T13:56:41.275Z,7.80
2019-03-12T13:59:14.163Z,7.77
2019-03-12T14:01:45.114Z,7.77
2019-03-12T14:04:15.979Z,7.66
2019-03-12T14:06:46.609Z,7.53
2019-03-12T14:09:18.226Z,7.40
2019-03-12T14:11:48.939Z,7.28
2019-03-12T14:14:19.424Z,7.24
2019-03-12T14:16:50.104Z,7.18
2019-03-12T14:19:20.802Z,7.06
2019-03-12T14:21:51.563Z,7.08
2019-03-12T14:24:22.131Z,7.04
2019-03-12T14:26:54.792Z,6.99
2019-03-12T14:29:26.578Z,6.99
2019-03-12T14:31:57.680Z,6.94
2019-03-12T14:34:28.504Z,6.89
2019-03-12T14:36:59.024Z,6.84
2019-03-12T14:39:29.391Z,6.94
2019-03-12T14:42:00.180Z,7.05
2019-03-12T14:44:31.052Z,7.12
2019-03-12T14:47:01.463Z,7.10
2019-03-12T14:49:31.730Z,7.26
2019-03-12T14:52:21.778Z,7.15
2019-03-12T14:54:52.597Z,6.95
2019-03-12T14:57:24.307Z,6.84
2019-03-12T14:59:54.861Z,6.66
2019-03-12T15:02:25.611Z,6.47
2019-03-12T15:04:56.562Z,6.29
2019-03-12T15:07:27.395Z,6.21
2019-03-12T15:09:58.005Z,6.12
2019-03-12T15:12:28.848Z,6.00
2019-03-12T15:14:59.463Z,5.97
2019-03-12T15:17:30.157Z,5.84
2019-03-12T15:20:01.010Z,5.81
2019-03-12T15:22:31.561Z,5.65
2019-03-12T15:25:02.080Z,5.68
2019-03-12T15:27:32.687Z,5.77
2019-03-12T15:30:04.616Z,5.83
2019-03-12T15:32:36.971Z,5.84
2019-03-12T15:35:07.595Z,5.86
2019-03-12T15:37:38.276Z,5.83
2019-03-12T15:40:09.142Z,5.71
2019-03-12T15:42:39.647Z,5.72
2019-03-12T15:45:10.725Z,5.79
2019-03-12T15:47:42.686Z,5.87
2019-03-12T15:50:14.057Z,5.85
2019-03-12T15:52:44.777Z,5.79
2019-03-12T15:55:15.392Z,5.96
2019-03-12T15:57:45.753Z,6.05
2019-03-12T16:00:16.784Z,6.06
2019-03-12T16:02:47.277Z,6.16
2019-03-12T16:05:17.786Z,6.15
2019-03-12T16:07:48.510Z,6.07
2019-03-12T16:10:19.818Z,6.03
2019-03-12T16:12:50.544Z,6.13
2019-03-12T16:15:20.744Z,6.34
2019-03-12T16:17:51.076Z,6.48
2019-03-12T16:20:21.955Z,6.53
2019-03-12T16:22:52.440Z,6.55
2019-03-12T16:25:23.426Z,6.44
2019-03-12T16:27:54.440Z,6.52
2019-03-12T16:30:25.327Z,6.64
2019-03-12T16:32:55.926Z,6.70
2019-03-12T16:35:27.153Z,6.72
2019-03-12T16:37:57.799Z,6.87
2019-03-12T16:40:30.379Z,6.87
2019-03-12T16:43:01.014Z,6.64
2019-03-12T16:45:31.985Z,6.62
2019-03-12T16:48:05.731Z,6.72
2019-03-12T16:50:36.631Z,6.70
2019-03-12T16:53:07.259Z,6.73
2019-03-12T16:55:38.642Z,6.87
2019-03-12T16:58:09.280Z,6.94
2019-03-12T17:00:39.899Z,6.91
2019-03-12T17:03:11.306Z,7.17
2019-03-12T17:05:42.268Z,7.27
2019-03-12T17:08:12.860Z,7.07
2019-03-12T17:10:54.372Z,6.80
2019-03-12T17:13:17.174Z,6.60
2019-03-12T17:15:51.111Z,6.43
2019-03-12T17:18:19.850Z,6.31
2019-03-12T17:20:50.520Z,6.21
2019-03-12T17:23:23.761Z,6.13
2019-03-12T17:25:54.598Z,6.11
2019-03-12T17:28:25.416Z,6.15
2019-03-12T17:30:56.377Z,5.97
2019-03-12T17:33:27.121Z,5.93
2019-03-12T17:35:58.104Z,5.98
2019-03-12T17:38:45.522Z,6.28
2019-03-12T17:41:03.030Z,6.38
2019-03-12T17:43:33.742Z,6.31
2019-03-12T17:46:07.745Z,6.47
2019-03-12T17:48:38.390Z,6.44
2019-03-12T17:51:09.038Z,6.44
2019-03-12T17:53:39.568Z,6.61
2019-03-12T17:56:11.987Z,6.47
2019-03-12T17:58:42.859Z,6.69
2019-03-12T18:01:13.380Z,6.79
2019-03-12T18:03:44.186Z,6.86
2019-03-12T18:06:14.676Z,6.57
2019-03-12T18:08:46.464Z,6.42
2019-03-12T18:11:17.168Z,6.36
2019-03-12T18:13:48.052Z,6.46
2019-03-12T18:16:19.243Z,6.42
2019-03-12T18:18:49.844Z,6.47
2019-03-12T18:21:22.006Z,6.33
2019-03-12T18:23:54.665Z,6.47
2019-03-12T18:26:25.539Z,6.19
2019-03-12T18:28:59.172Z,6.25
2019-03-12T18:31:28.542Z,6.48
2019-03-12T18:34:01.902Z,6.55
2019-03-12T18:36:32.654Z,6.51
2019-03-12T18:39:03.596Z,6.53
2019-03-12T18:41:36.427Z,6.41
2019-03-12T18:44:08.888Z,6.46
2019-03-12T18:46:43.259Z,6.52
2019-03-12T18:49:14.251Z,6.68
2019-03-12T18:51:44.728Z,6.68
2019-03-12T18:54:15.646Z,6.52
2019-03-12T18:56:47.042Z,6.31
2019-03-12T18:59:18.339Z,6.26
2019-03-12T19:01:49.499Z,6.15
2019-03-12T19:04:20.072Z,6.07
2019-03-12T19:06:50.767Z,5.90
2019-03-12T19:09:21.500Z,5.85
2019-03-12T19:11:52.306Z,5.87
2019-03-12T19:14:23.051Z,5.86
2019-03-12T19:16:53.609Z,5.79
2019-03-12T19:19:24.149Z,5.79
2019-03-12T19:21:54.839Z,5.67
2019-03-12T19:24:25.653Z,5.69
2019-03-12T19:26:56.420Z,5.61
2019-03-12T19:29:27.267Z,5.70
2019-03-12T19:32:19.695Z,5.78
2019-03-12T19:34:50.576Z,5.87
2019-03-12T19:37:21.107Z,5.80
2019-03-12T19:39:52.736Z,6.09
2019-03-12T19:42:23.187Z,6.23
2019-03-12T19:44:54.221Z,6.30
2019-03-12T19:47:24.838Z,6.28
2019-03-12T19:49:55.584Z,6.22
2019-03-12T19:52:26.317Z,6.26
2019-03-12T19:54:57.192Z,6.29
2019-03-12T19:57:27.957Z,6.19
2019-03-12T19:59:58.632Z,6.12
2019-03-12T20:02:30.196Z,6.19
2019-03-12T20:05:01.065Z,6.11
2019-03-12T20:07:31.775Z,6.01
2019-03-12T20:10:25.863Z,5.96
2019-03-12T20:13:31.297Z,5.92
2019-03-12T20:17:12.546Z,5.98
2019-03-12T20:20:26.331Z,5.99
2019-03-12T20:23:31.100Z,5.95
2019-03-12T20:26:40.559Z,5.79
2019-03-12T20:30:09.935Z,5.82
2019-03-12T20:33:15.928Z,5.79
2019-03-12T20:36:21.728Z,5.77
2019-03-12T20:39:43.591Z,5.71
2019-03-12T20:42:53.807Z,5.62
2019-03-12T20:46:10.297Z,5.79
2019-03-12T20:49:29.949Z,5.79
2019-03-12T20:52:27.784Z,5.76
2019-03-12T20:55:41.618Z,5.71
2019-03-12T20:58:47.125Z,5.78
2019-03-12T21:01:39.803Z,5.72
2019-03-12T21:04:50.785Z,5.57
2019-03-12T21:08:06.539Z,5.50
2019-03-12T21:11:22.163Z,5.54
2019-03-12T21:14:39.758Z,5.61
2019-03-12T21:17:24.540Z,5.73
2019-03-12T21:21:02.822Z,5.81
2019-03-12T21:23:53.700Z,5.86
2019-03-12T21:27:01.439Z,5.80
2019-03-12T21:29:50.635Z,5.96
2019-03-12T21:32:21.235Z,5.88
2019-03-12T21:34:51.657Z,5.93
2019-03-12T21:37:22.409Z,5.81
2019-03-12T21:39:56.048Z,5.66
2019-03-12T21:42:25.979Z,5.61
2019-03-12T21:44:56.505Z,5.56
2019-03-12T21:47:27.101Z,5.56
2019-03-12T21:49:57.946Z,5.43
2019-03-12T21:52:28.693Z,5.36
2019-03-12T21:54:59.129Z,5.31
2019-03-12T21:57:29.598Z,5.29
2019-03-12T22:00:00.435Z,5.20
2019-03-12T22:02:30.875Z,5.21
2019-03-12T22:05:01.276Z,5.27
2019-03-12T22:07:34.105Z,5.25
2019-03-12T22:10:04.551Z,5.18
2019-03-12T22:12:35.040Z,5.11
2019-03-12T22:15:05.841Z,5.09
2019-03-12T22:17:36.124Z,5.04
2019-03-12T22:20:07.510Z,4.99
2019-03-12T22:22:42.674Z,4.96
2019-03-12T22:25:14.063Z,5.00
2019-03-12T22:27:44.522Z,5.17
2019-03-12T22:30:17.742Z,5.19
2019-03-12T22:32:48.513Z,5.14
2019-03-12T22:35:19.027Z,5.13
2019-03-12T22:37:49.371Z,5.17
2019-03-12T22:40:19.698Z,5.19
2019-03-12T22:42:50.259Z,5.15
2019-03-12T22:45:20.578Z,5.14
2019-03-12T22:47:50.952Z,5.18
2019-03-12T22:50:21.334Z,5.19
2019-03-12T22:52:51.895Z,5.13
2019-03-12T22:55:22.522Z,5.11
2019-03-12T22:57:53.061Z,5.15
2019-03-12T23:00:24.105Z,5.15
2019-03-12T23:02:54.577Z,5.08
2019-03-12T23:05:25.065Z,5.04
2019-03-12T23:07:55.389Z,5.18
2019-03-12T23:10:26.433Z,5.30
2019-03-12T23:12:57.393Z,5.31
2019-03-12T23:15:27.833Z,5.27
2019-03-12T23:17:58.427Z,5.22
2019-03-12T23:20:28.947Z,5.31
2019-03-12T23:22:59.388Z,5.30
2019-03-12T23:25:29.876Z,5.28
2019-03-12T23:28:00.262Z,5.27
2019-03-12T23:30:30.571Z,5.34
2019-03-12T23:33:00.977Z,5.35
2019-03-12T23:35:31.622Z,5.48
2019-03-12T23:38:02.189Z,5.43
2019-03-12T23:40:32.872Z,5.47
2019-03-12T23:43:03.459Z,5.32
2019-03-12T23:45:34.370Z,4.95
2019-03-12T23:48:04.980Z,4.96
2019-03-12T23:50:35.174Z,5.29
2019-03-12T23:53:05.527Z,5.45
2019-03-12T23:55:36.280Z,5.30
2019-03-12T23:58:07.175Z,5.35
